TimeMST,TemperatureF,Dew PointF,Humidity,Sea Level PressureIn,VisibilityMPH,Wind Direction,Wind SpeedMPH,Gust SpeedMPH,PrecipitationIn,Events,Conditions,WindDirDegrees,DateUTC
12:56 AM,37.0,12.9,37,29.99,10.0,WSW,19.6,-,N/A,,Clear,240,2013-01-25 07:56:00
1:56 AM,37.9,21.9,53,29.96,10.0,WSW,18.4,29.9,N/A,,Clear,250,2013-01-25 08:56:00
2:56 AM,41.0,23.0,49,29.95,10.0,WSW,25.3,35.7,N/A,,Clear,240,2013-01-25 09:56:00
3:56 AM,41.0,24.1,51,29.93,10.0,WSW,27.6,41.4,N/A,,Clear,240,2013-01-25 10:56:00
4:56 AM,41.0,24.8,53,29.89,10.0,WSW,19.6,28.8,N/A,,Clear,240,2013-01-25 11:56:00
5:56 AM,41.0,26.1,55,29.94,10.0,WSW,24.2,31.1,N/A,,Clear,250,2013-01-25 12:56:00
6:56 AM,41.0,27.0,57,29.93,10.0,WSW,26.5,34.5,N/A,,Clear,250,2013-01-25 13:56:00
7:56 AM,41.0,27.0,57,29.95,10.0,WSW,23.0,-,N/A,,Clear,250,2013-01-25 14:56:00
8:56 AM,41.0,28.0,60,29.96,10.0,West,15.0,28.8,N/A,,Clear,270,2013-01-25 15:56:00
9:56 AM,46.0,28.9,51,29.94,10.0,WSW,16.1,19.6,N/A,,Clear,250,2013-01-25 16:56:00
10:56 AM,46.9,28.0,48,29.93,10.0,West,8.1,-,N/A,,Clear,260,2013-01-25 17:56:00
11:56 AM,46.0,28.9,51,29.92,10.0,West,19.6,-,N/A,,Clear,260,2013-01-25 18:56:00
12:56 PM,46.9,30.0,52,29.91,10.0,WSW,21.9,31.1,N/A,,Clear,240,2013-01-25 19:56:00
1:56 PM,46.9,30.0,52,29.87,10.0,WSW,26.5,35.7,N/A,,Clear,250,2013-01-25 20:56:00
2:56 PM,48.0,30.0,50,29.86,10.0,WSW,26.5,35.7,N/A,,Clear,250,2013-01-25 21:56:00
3:56 PM,53.1,30.0,41,29.86,10.0,WSW,10.4,-,N/A,,Clear,250,2013-01-25 22:56:00
4:56 PM,46.9,28.0,48,29.88,10.0,West,4.6,-,N/A,,Clear,260,2013-01-25 23:56:00
5:56 PM,45.0,28.0,52,29.85,3.0,WSW,15.0,-,N/A,,Haze,240,2013-01-26 00:56:00
6:56 PM,42.1,28.0,58,29.84,10.0,WSW,15.0,-,N/A,,Clear,250,2013-01-26 01:56:00
7:56 PM,37.0,28.9,73,29.86,10.0,WNW,9.2,-,N/A,,Clear,290,2013-01-26 02:56:00
8:56 PM,37.0,30.0,76,29.86,10.0,West,11.5,-,N/A,,Clear,280,2013-01-26 03:56:00
9:56 PM,39.9,30.0,68,29.83,10.0,SW,4.6,-,N/A,,Clear,220,2013-01-26 04:56:00
10:56 PM,36.0,30.0,79,29.82,10.0,NW,12.7,-,N/A,,Clear,310,2013-01-26 05:56:00
11:56 PM,39.9,30.9,70,29.81,10.0,WNW,15.0,-,N/A,,Clear,290,2013-01-26 06:56:00